Longwood, FL (32750)

9:43 PM EDT on June 02, 2015 (GMT -0400)
Longwood | | Change Station
CLOSE
Current Station
Personal Weather Station
Location: Longwood, FL
Elevation: 82 ft
Nearby Weather Stations

Elev 82 ft 28.72 °N, 81.35 °W | Updated 5 seconds ago

Light Rain
Light Rain
70.1 °F
Feels Like 70.1 °F
N
0.0
Wind Variable Wind from West
Gusts 1.0 mph

Today
High -- | Low -- °F
--% Chance of Precip.
Yesterday
High -- | Low -- °F
Precip. -- in
6:27 AM 8:19 PM
Full, 100% visible
Pressure 30.00 in
Visibility 10.0 miles
Clouds Few 12000 ft
Dew Point 69 °F
Humidity 97%
Rainfall 0.17 in
Snow Depth Not available.
UV 0 out of 12
Pollen .60 out of 12
Air Quality Not available.
Flu Activity Sporadic
METAR KSFB 030053Z 25010KT 10SM -RA FEW120 21/20 A3000 RMK AO2 SLP158 P0002 T02110200

More Conditions Fewer Conditions

Pressure 30.00 in
Visibility 10.0 miles
Clouds Few 12000 ft
Dew Point 69 °F
Humidity 97%
Rainfall 0.17 in
Snow Depth Not available.
UV 0 out of 12
Pollen .60 out of 12
Air Quality Not available.
Flu Activity Sporadic
METAR KSFB 030053Z 25010KT 10SM -RA FEW120 21/20 A3000 RMK AO2 SLP158 P0002 T02110200

More Conditions Fewer Conditions

Nowcast | as of 8:38 PM EDT on June 2, 2015

The strongest storms have ended across east central Florida this evening...leaving widespread light to moderate debris rain across most of the region. Upper level conditions remain favorable for most of this activity to continue through the late evening hours. Overall rainfall amounts are expected to remain less than a quarter of an inch...though locations along the lake and Sumter border may see an additional inch of rain through late evening. An occasional embedded thunderstorm will be possible as any remaining boundary interactions play out. Additional details...including graphics are available online at: http://www.Srh.NOAA.Gov/mlb/blog.Php

×

10-Day Weather Forecast

×

Almanac

Astronomy

Jun. 02, 2015 Rise Set
Actual Time
Civil Twilight
Nautical Twilight
Astronomical Twilight
Moon
Length of Visible Light
Length of Day
Tomorrow will be .
, % of the Moon is Illuminated

Today's Extremes

State Highs State Lows

Community

WunderPhotos

Upload Photos

1,826,097 photos uploaded!

WunderBlogs® & News

Nearby

Air Quality

  Air Quality AQ Index Pollutant
Not available.

Snow Depth

Station Depth Elevation

Earthquake Activity

City Distance Mag. Time & Date
Minimum magnitude displayed is 2.5.

Coastal Water Temperatures

Place Temperature

Stations

Nearby Weather Stations

Station Location Temp. Windchill Dew Point Humidity Wind Precip. Elev Updated Type